Terminal Aerodrome Forecast
Issued by NWS

Home | Current Version | Previous Version | Text Only | Print | Product List | Glossary On
Versions: 1 2 3 4 5 6 7 8 9 10 11 12 13 14 15 16 17 18 19 20 21 22 23 24 25
000
FTUS45 KFGZ 260827 AAC
TAFPGA
TAF AMD
KPGA 260827Z 2608/2706 29011KT P6SM VCSH FEW012 SCT025 BKN040
     FM261000 35011KT P6SM FEW035 SCT060
     FM261600 02012G20KT P6SM FEW060
     FM270300 35010G20KT P6SM SKC=

USA.gov is the U.S. government's official web portal to all federal, state and local government web resources and services.